Time;durP1;ratioP1;P1;durP2;ratioP2;P2;SDS_P1;SDS_P2;PMS_P1;PMS_P2;Temp;Humidity;BMP_temperature;BMP_pressure;BME280_temperature;BME280_humidity;BME280_pressure;Samples;Min_cycle;Max_cycle;Signal;HPM_P1;HPM_P2
2023/06/06 00:01:18;;;;;;;4.25;1.65;;;19.90;74.50;;;;;;5117538;28;20042;-81
2023/06/06 00:03:51;;;;;;;2.17;1.45;;;19.80;74.00;;;;;;5115907;28;20031;-82
2023/06/06 00:06:20;;;;;;;1.42;1.10;;;19.80;74.10;;;;;;5117587;28;20456;-82
2023/06/06 00:08:47;;;;;;;3.72;1.48;;;19.80;74.40;;;;;;5116569;28;20468;-91
2023/06/06 00:11:13;;;;;;;4.00;1.50;;;19.80;74.50;;;;;;5116353;28;20024;-82
2023/06/06 00:13:40;;;;;;;1.25;1.15;;;19.70;74.70;;;;;;5115124;28;20023;-80
2023/06/06 00:16:06;;;;;;;2.03;1.27;;;19.70;74.80;;;;;;5100754;28;20016;-80
2023/06/06 00:18:32;;;;;;;2.33;1.20;;;19.70;75.10;;;;;;5114772;28;20449;-86
2023/06/06 00:20:58;;;;;;;3.95;1.40;;;19.60;75.30;;;;;;5114156;28;20165;-86
2023/06/06 00:23:24;;;;;;;2.47;1.42;;;19.50;75.80;;;;;;5115760;28;20040;-82
2023/06/06 00:25:53;;;;;;;4.32;1.50;;;19.50;76.00;;;;;;5115851;28;20023;-81
2023/06/06 00:28:18;;;;;;;2.60;1.23;;;19.50;76.10;;;;;;5115877;28;20027;-83
2023/06/06 00:30:44;;;;;;;3.35;1.50;;;19.50;76.50;;;;;;5116135;28;20026;-82
2023/06/06 00:33:10;;;;;;;1.63;1.20;;;19.40;76.50;;;;;;5115708;28;20026;-83
2023/06/06 00:35:36;;;;;;;2.33;1.20;;;19.40;76.80;;;;;;5116637;28;20031;-82
2023/06/06 00:38:01;;;;;;;1.63;1.17;;;19.40;77.00;;;;;;5116092;28;20452;-81
2023/06/06 00:40:27;;;;;;;1.85;1.50;;;19.30;77.30;;;;;;5116350;28;20044;-80
2023/06/06 00:42:52;;;;;;;3.05;1.40;;;19.30;77.60;;;;;;5116169;28;20024;-80
2023/06/06 00:45:18;;;;;;;3.40;1.50;;;19.30;78.00;;;;;;5115865;28;20380;-81
2023/06/06 00:47:44;;;;;;;2.38;1.50;;;19.20;78.40;;;;;;5116378;28;20028;-81
2023/06/06 00:50:12;;;;;;;2.83;1.50;;;19.20;79.00;;;;;;5114195;28;20051;-82
2023/06/06 00:52:40;;;;;;;2.88;1.70;;;19.10;79.20;;;;;;5110823;28;20063;-79
2023/06/06 00:55:07;;;;;;;2.38;1.55;;;19.10;79.90;;;;;;5096047;28;20020;-80
2023/06/06 00:57:34;;;;;;;2.42;1.60;;;19.00;80.20;;;;;;5095513;28;20059;-80
2023/06/06 00:59:59;;;;;;;2.17;1.63;;;19.00;80.60;;;;;;5112084;28;20024;-79
2023/06/06 01:02:25;;;;;;;1.75;1.50;;;19.00;80.90;;;;;;5095234;28;20376;-79
2023/06/06 01:04:51;;;;;;;3.25;1.50;;;18.90;81.80;;;;;;5115131;28;20027;-79
2023/06/06 01:07:17;;;;;;;2.40;1.40;;;18.90;82.20;;;;;;5115110;28;20031;-79
2023/06/06 01:09:44;;;;;;;2.42;1.50;;;18.80;82.40;;;;;;5113931;28;20461;-81
2023/06/06 01:12:20;;;;;;;3.00;1.58;;;18.80;83.00;;;;;;5116205;28;20073;-79
2023/06/06 01:14:58;;;;;;;2.45;1.58;;;18.70;83.50;;;;;;5114685;28;20095;-80
2023/06/06 01:17:27;;;;;;;1.98;1.50;;;18.70;84.00;;;;;;5114901;28;20023;-81
2023/06/06 01:19:56;;;;;;;1.95;1.60;;;18.60;84.80;;;;;;5111303;28;20028;-82
2023/06/06 01:22:22;;;;;;;2.42;1.50;;;18.60;85.40;;;;;;5094756;28;20392;-81
2023/06/06 01:24:56;;;;;;;3.75;2.40;;;18.50;85.90;;;;;;5094055;28;20477;-80
2023/06/06 01:27:22;;;;;;;4.55;1.70;;;18.60;87.50;;;;;;5094715;28;20484;-80
2023/06/06 01:29:51;;;;;;;2.83;1.70;;;18.50;87.20;;;;;;5094167;28;20123;-80
2023/06/06 01:32:26;;;;;;;4.95;1.90;;;18.60;87.50;;;;;;5102977;28;20031;-80
2023/06/06 01:35:20;;;;;;;3.08;1.80;;;18.60;88.00;;;;;;5112283;28;20073;-80
2023/06/06 01:38:07;;;;;;;2.85;2.22;;;18.60;88.60;;;;;;5114670;28;20028;-80
2023/06/06 01:40:33;;;;;;;3.05;2.00;;;18.60;88.80;;;;;;5114003;28;20047;-80
2023/06/06 01:43:02;;;;;;;3.15;2.00;;;18.60;89.50;;;;;;5114644;28;20027;-80
2023/06/06 01:45:30;;;;;;;5.13;2.33;;;18.50;90.10;;;;;;5115123;28;20027;-80
2023/06/06 01:47:57;;;;;;;3.55;2.22;;;18.50;90.40;;;;;;5115893;28;20081;-81
2023/06/06 01:50:23;;;;;;;2.25;1.90;;;18.50;90.60;;;;;;5114852;28;20491;-79
2023/06/06 01:52:52;;;;;;;5.18;2.20;;;18.50;90.80;;;;;;5115120;28;20044;-80
2023/06/06 01:55:18;;;;;;;2.75;1.80;;;18.50;91.00;;;;;;5116087;28;20028;-80
2023/06/06 01:57:43;;;;;;;3.92;1.98;;;18.40;91.00;;;;;;5111696;28;20122;-81
2023/06/06 02:00:10;;;;;;;2.92;1.80;;;18.40;91.40;;;;;;5113901;28;20388;-79
2023/06/06 02:02:36;;;;;;;4.18;2.05;;;18.50;91.60;;;;;;5112600;28;20156;-81
2023/06/06 02:05:03;;;;;;;2.58;2.10;;;18.40;91.70;;;;;;5113095;28;20116;-81
2023/06/06 02:07:29;;;;;;;2.85;2.00;;;18.50;91.90;;;;;;5112473;28;20031;-81
2023/06/06 02:09:54;;;;;;;2.97;2.20;;;18.50;92.00;;;;;;5115067;28;20027;-81
2023/06/06 02:12:20;;;;;;;4.93;2.30;;;18.50;92.30;;;;;;5113980;28;20030;-79
2023/06/06 02:14:46;;;;;;;5.05;2.30;;;18.50;92.50;;;;;;5113277;28;20024;-78
2023/06/06 02:17:12;;;;;;;3.85;2.55;;;18.50;92.60;;;;;;5113519;28;20023;-79
2023/06/06 02:19:38;;;;;;;4.50;2.20;;;18.40;92.90;;;;;;5112872;28;20058;-79
2023/06/06 02:22:04;;;;;;;2.90;2.30;;;18.30;93.10;;;;;;5114347;28;20114;-79
2023/06/06 02:24:30;;;;;;;5.13;2.17;;;18.20;93.40;;;;;;5112080;28;20042;-79
2023/06/06 02:26:56;;;;;;;2.60;2.35;;;18.20;93.70;;;;;;5112995;28;20035;-79
2023/06/06 02:29:22;;;;;;;3.08;2.40;;;18.10;93.90;;;;;;5113037;28;20027;-79
2023/06/06 02:31:49;;;;;;;3.97;2.42;;;18.10;94.10;;;;;;5113784;28;20289;-79
2023/06/06 02:34:15;;;;;;;2.88;2.20;;;18.00;94.20;;;;;;5112857;28;20063;-79
2023/06/06 02:36:41;;;;;;;6.30;2.88;;;18.00;94.30;;;;;;5112303;28;20035;-80
2023/06/06 02:39:09;;;;;;;2.88;2.15;;;18.00;94.70;;;;;;5112509;28;20464;-79
2023/06/06 02:41:35;;;;;;;3.47;2.28;;;18.00;94.60;;;;;;5112166;28;20134;-79
2023/06/06 02:44:01;;;;;;;4.32;2.55;;;17.90;94.90;;;;;;5113263;28;20160;-79
2023/06/06 02:46:27;;;;;;;3.38;2.75;;;17.90;95.20;;;;;;5114194;28;20032;-79
2023/06/06 02:48:53;;;;;;;3.63;2.72;;;17.80;95.50;;;;;;5113734;28;20086;-79
2023/06/06 02:51:23;;;;;;;3.67;2.65;;;17.90;95.40;;;;;;5112138;28;20026;-80
2023/06/06 02:53:51;;;;;;;3.17;2.60;;;17.80;95.60;;;;;;5112957;28;20564;-80
2023/06/06 02:56:17;;;;;;;5.13;3.00;;;17.80;96.00;;;;;;5113403;28;20618;-80
2023/06/06 02:58:43;;;;;;;5.43;2.58;;;17.70;96.30;;;;;;5112865;28;20051;-80
2023/06/06 03:01:12;;;;;;;4.25;2.78;;;17.70;96.40;;;;;;5113297;28;20042;-79
2023/06/06 03:03:38;;;;;;;5.53;2.63;;;17.70;96.50;;;;;;5112746;28;20032;-81
2023/06/06 03:06:06;;;;;;;4.05;2.85;;;17.60;96.70;;;;;;5113228;28;20070;-80
2023/06/06 03:08:38;;;;;;;4.47;3.05;;;17.60;96.80;;;;;;5112824;28;20123;-81
2023/06/06 03:11:04;;;;;;;4.30;2.42;;;17.60;97.00;;;;;;5114169;28;20020;-80
2023/06/06 03:13:29;;;;;;;3.85;3.15;;;17.60;97.10;;;;;;5113928;28;20114;-80
2023/06/06 03:15:56;;;;;;;5.07;3.25;;;17.50;97.20;;;;;;5113376;28;20028;-80
2023/06/06 03:18:23;;;;;;;3.95;2.85;;;17.50;97.30;;;;;;5112608;28;20024;-79
2023/06/06 03:20:53;;;;;;;4.55;2.85;;;17.50;97.40;;;;;;5112456;28;20031;-79
2023/06/06 03:23:19;;;;;;;5.10;2.53;;;17.50;97.60;;;;;;5114153;28;20039;-78
2023/06/06 03:25:49;;;;;;;6.68;2.90;;;17.50;97.70;;;;;;5111748;28;20028;-79
2023/06/06 03:28:16;;;;;;;5.90;2.95;;;17.40;97.80;;;;;;5108329;28;20451;-79
2023/06/06 03:30:41;;;;;;;4.22;2.70;;;17.40;98.00;;;;;;5111917;28;20032;-80
2023/06/06 03:33:07;;;;;;;5.35;3.40;;;17.40;98.00;;;;;;5115811;28;20030;-79
2023/06/06 03:35:34;;;;;;;4.00;2.53;;;17.40;98.00;;;;;;5116118;28;20031;-80
2023/06/06 03:38:04;;;;;;;3.97;3.00;;;17.40;98.10;;;;;;5116379;28;20047;-79
2023/06/06 03:40:30;;;;;;;5.78;2.97;;;17.30;98.20;;;;;;5116131;28;20384;-79
2023/06/06 03:42:56;;;;;;;6.00;2.80;;;17.30;98.30;;;;;;5115980;28;20024;-79
2023/06/06 03:45:22;;;;;;;4.97;2.90;;;17.30;98.20;;;;;;5115897;28;20500;-79
2023/06/06 03:47:48;;;;;;;3.25;2.70;;;17.40;98.20;;;;;;5115871;28;20032;-80
2023/06/06 03:50:14;;;;;;;3.40;2.60;;;17.30;98.40;;;;;;5117359;28;20051;-79
2023/06/06 03:52:40;;;;;;;4.18;3.00;;;17.30;98.50;;;;;;5115108;28;20496;-81
2023/06/06 03:55:07;;;;;;;3.72;2.70;;;17.30;98.60;;;;;;5115131;28;20497;-79
2023/06/06 03:57:33;;;;;;;4.82;3.20;;;17.30;98.60;;;;;;5116679;28;20103;-81
2023/06/06 04:00:00;;;;;;;6.97;3.65;;;17.30;98.80;;;;;;5117051;28;20051;-80
2023/06/06 04:02:26;;;;;;;5.45;3.10;;;17.20;98.80;;;;;;5116745;28;20077;-80
2023/06/06 04:04:51;;;;;;;5.90;3.60;;;17.20;99.00;;;;;;5116826;28;20031;-81
2023/06/06 04:07:17;;;;;;;4.32;3.00;;;17.10;99.30;;;;;;5116551;28;20024;-80
2023/06/06 04:09:43;;;;;;;4.15;2.72;;;17.10;99.70;;;;;;5115795;28;20036;-79
2023/06/06 04:12:10;;;;;;;4.82;3.13;;;17.10;99.80;;;;;;5117682;28;20028;-80
2023/06/06 04:14:35;;;;;;;3.92;3.00;;;17.10;99.60;;;;;;5117768;28;20476;-81
2023/06/06 04:17:04;;;;;;;5.65;3.60;;;17.10;99.60;;;;;;5117223;28;20024;-81
2023/06/06 04:19:30;;;;;;;5.18;3.53;;;17.10;99.80;;;;;;5116234;28;20490;-80
2023/06/06 04:21:56;;;;;;;5.38;3.10;;;17.10;99.80;;;;;;5115471;28;20019;-79
2023/06/06 04:24:22;;;;;;;6.82;3.03;;;17.10;99.80;;;;;;5116529;27;20034;-80
2023/06/06 04:26:48;;;;;;;6.15;3.03;;;17.20;99.80;;;;;;5128095;27;20076;-81
2023/06/06 04:29:14;;;;;;;5.13;3.55;;;17.20;99.70;;;;;;5116388;28;20032;-79
2023/06/06 04:31:44;;;;;;;4.72;2.75;;;17.20;99.50;;;;;;5115303;28;20080;-81
2023/06/06 04:34:10;;;;;;;5.90;3.30;;;17.20;99.50;;;;;;5113825;28;20110;-80
2023/06/06 04:36:40;;;;;;;5.70;3.30;;;17.30;99.50;;;;;;5112473;28;20062;-82
2023/06/06 04:39:06;;;;;;;5.88;3.08;;;17.30;99.30;;;;;;5117339;28;20024;-82
2023/06/06 04:41:33;;;;;;;4.85;3.25;;;17.30;99.20;;;;;;5118490;27;20108;-81
2023/06/06 04:44:02;;;;;;;4.50;3.00;;;17.40;99.00;;;;;;5119351;27;20034;-82
2023/06/06 04:46:31;;;;;;;4.70;3.30;;;17.40;98.90;;;;;;5103089;28;20087;-80
2023/06/06 04:48:59;;;;;;;4.82;2.90;;;17.40;98.70;;;;;;5115261;28;20023;-81
2023/06/06 04:51:29;;;;;;;4.60;2.72;;;17.50;98.60;;;;;;5120989;27;20080;-80
2023/06/06 04:54:06;;;;;;;4.63;2.92;;;17.40;98.30;;;;;;5116163;28;20108;-80
2023/06/06 04:56:32;;;;;;;3.67;2.90;;;17.50;98.20;;;;;;5116540;28;20157;-80
2023/06/06 04:59:06;;;;;;;4.20;2.70;;;17.50;98.20;;;;;;5115079;28;20057;-79
2023/06/06 05:01:36;;;;;;;4.15;2.58;;;17.50;97.90;;;;;;5116733;28;20027;-79
2023/06/06 05:04:03;;;;;;;5.47;3.30;;;17.60;97.80;;;;;;5116256;28;20365;-80
2023/06/06 05:06:31;;;;;;;3.85;2.65;;;17.60;97.60;;;;;;5115739;28;20045;-81
2023/06/06 05:09:07;;;;;;;4.07;2.88;;;17.50;97.60;;;;;;5116068;28;20784;-79
2023/06/06 05:11:33;;;;;;;4.85;2.58;;;17.50;97.70;;;;;;5116185;28;20020;-79
2023/06/06 05:13:59;;;;;;;3.80;2.63;;;17.60;97.70;;;;;;5115018;28;20031;-78
2023/06/06 05:16:25;;;;;;;4.15;2.60;;;17.60;97.60;;;;;;5116508;28;20023;-80
2023/06/06 05:18:51;;;;;;;3.60;2.65;;;17.60;97.50;;;;;;5115065;28;20035;-80
2023/06/06 05:21:18;;;;;;;3.90;2.40;;;17.60;97.60;;;;;;5115424;28;20034;-80
2023/06/06 05:23:44;;;;;;;4.88;2.60;;;17.70;97.50;;;;;;5114909;28;20447;-81
2023/06/06 05:26:10;;;;;;;5.57;2.85;;;17.60;97.60;;;;;;5115681;28;20051;-80
2023/06/06 05:28:38;;;;;;;3.80;2.58;;;17.70;97.40;;;;;;5115252;28;20031;-80
2023/06/06 05:31:07;;;;;;;7.00;2.90;;;17.70;97.50;;;;;;5116011;27;20028;-80
2023/06/06 05:33:33;;;;;;;3.55;2.70;;;17.70;97.50;;;;;;5115151;28;20439;-79
2023/06/06 05:35:59;;;;;;;3.88;2.80;;;17.80;97.20;;;;;;5115071;28;20035;-79
2023/06/06 05:38:25;;;;;;;4.32;2.60;;;17.80;97.10;;;;;;5115829;28;20030;-80
2023/06/06 05:40:51;;;;;;;5.93;2.78;;;17.80;97.10;;;;;;5115112;28;20103;-79
2023/06/06 05:43:16;;;;;;;6.32;2.92;;;17.90;97.10;;;;;;5115046;28;20028;-78
2023/06/06 05:45:42;;;;;;;4.55;2.80;;;17.90;97.30;;;;;;5115013;28;20024;-80
2023/06/06 05:48:08;;;;;;;3.45;2.78;;;17.90;97.10;;;;;;5115528;28;20055;-80
2023/06/06 05:50:34;;;;;;;4.47;2.70;;;18.00;96.90;;;;;;5114221;28;20030;-80
2023/06/06 05:53:02;;;;;;;4.80;2.50;;;18.00;96.90;;;;;;5114803;28;20100;-81
2023/06/06 05:55:30;;;;;;;6.30;2.70;;;18.00;96.90;;;;;;5115535;28;20024;-80
2023/06/06 05:57:56;;;;;;;9.18;3.40;;;18.10;96.70;;;;;;5113900;28;20123;-80
2023/06/06 06:00:24;;;;;;;6.35;3.30;;;18.10;96.20;;;;;;5114461;28;20027;-80
2023/06/06 06:02:51;;;;;;;9.48;2.95;;;18.20;96.30;;;;;;5113781;28;20404;-81
2023/06/06 06:05:18;;;;;;;7.20;2.85;;;18.20;96.20;;;;;;5114187;28;20114;-80
2023/06/06 06:07:44;;;;;;;12.73;3.47;;;18.20;96.00;;;;;;5114840;28;20023;-80
2023/06/06 06:10:10;;;;;;;6.63;2.70;;;18.20;96.00;;;;;;5114111;28;20026;-80
2023/06/06 06:12:36;;;;;;;6.47;2.47;;;18.20;96.10;;;;;;5113833;28;20031;-80
2023/06/06 06:15:02;;;;;;;6.38;2.58;;;18.30;95.90;;;;;;5113581;28;20032;-82
2023/06/06 06:17:27;;;;;;;4.95;2.50;;;18.30;95.80;;;;;;5113737;28;20031;-81
2023/06/06 06:19:53;;;;;;;3.80;2.67;;;18.40;95.80;;;;;;5114579;28;20020;-81
2023/06/06 06:22:18;;;;;;;5.40;3.22;;;18.40;95.90;;;;;;5109042;27;20039;-81
2023/06/06 06:24:44;;;;;;;6.68;2.67;;;18.40;95.80;;;;;;5114277;27;20122;-82
2023/06/06 06:27:10;;;;;;;7.18;2.78;;;18.50;95.80;;;;;;5113459;28;20476;-82
2023/06/06 06:29:36;;;;;;;4.95;2.35;;;18.50;95.80;;;;;;5130884;27;20073;-81
2023/06/06 06:32:01;;;;;;;8.68;3.00;;;18.50;95.90;;;;;;5113447;28;20055;-81
2023/06/06 06:34:27;;;;;;;6.90;2.97;;;18.60;95.50;;;;;;5122683;27;20083;-82
2023/06/06 06:36:52;;;;;;;6.68;2.50;;;18.60;95.40;;;;;;5120208;27;20051;-81
2023/06/06 06:39:19;;;;;;;7.07;2.40;;;18.70;95.40;;;;;;5114621;28;20024;-82
2023/06/06 06:41:47;;;;;;;4.75;2.35;;;18.70;94.80;;;;;;5114451;28;20361;-82
2023/06/06 06:44:13;;;;;;;4.78;2.58;;;18.70;95.00;;;;;;5114447;28;20032;-82
2023/06/06 06:46:39;;;;;;;6.80;2.30;;;18.80;94.90;;;;;;5108020;28;20483;-82
2023/06/06 06:49:15;;;;;;;3.97;2.40;;;18.90;94.80;;;;;;5125971;27;20542;-82
2023/06/06 06:51:41;;;;;;;2.78;2.00;;;18.90;94.50;;;;;;5116944;27;20088;-82
2023/06/06 06:54:07;;;;;;;4.72;2.20;;;18.90;94.20;;;;;;5113506;28;20028;-82
2023/06/06 06:56:32;;;;;;;4.18;2.38;;;19.00;94.00;;;;;;5112895;28;20019;-81
2023/06/06 06:58:58;;;;;;;3.45;2.22;;;19.10;94.00;;;;;;5125483;27;20030;-81
2023/06/06 07:01:27;;;;;;;3.58;2.40;;;19.00;94.30;;;;;;5117066;27;20030;-81
2023/06/06 07:03:53;;;;;;;2.90;2.05;;;19.10;94.30;;;;;;5129098;27;20061;-83
2023/06/06 07:06:20;;;;;;;5.47;2.20;;;19.20;93.90;;;;;;5106151;28;20134;-81
2023/06/06 07:08:46;;;;;;;3.03;2.28;;;19.20;94.10;;;;;;5122972;28;20043;-81
2023/06/06 07:11:11;;;;;;;4.78;2.17;;;19.30;93.60;;;;;;5125563;28;20068;-82
2023/06/06 07:13:37;;;;;;;4.43;2.50;;;19.30;93.80;;;;;;5130395;28;20165;-80
2023/06/06 07:16:03;;;;;;;3.45;2.30;;;19.30;93.30;;;;;;5113618;28;20030;-82
2023/06/06 07:18:28;;;;;;;2.92;2.10;;;19.40;93.60;;;;;;5120439;28;20023;-81
2023/06/06 07:20:54;;;;;;;4.13;2.00;;;19.50;93.30;;;;;;5115895;28;20104;-82
2023/06/06 07:23:19;;;;;;;3.65;2.83;;;19.50;92.80;;;;;;5113982;28;20425;-82
2023/06/06 07:25:45;;;;;;;2.55;2.00;;;19.60;93.00;;;;;;5118735;28;20023;-82
2023/06/06 07:28:13;;;;;;;4.20;2.25;;;19.60;92.80;;;;;;5124764;28;20016;-82
2023/06/06 07:30:38;;;;;;;4.07;2.10;;;19.70;92.60;;;;;;5125325;28;20023;-82
2023/06/06 07:33:04;;;;;;;3.47;2.03;;;19.70;92.20;;;;;;5116917;28;20457;-81
2023/06/06 07:35:32;;;;;;;5.78;2.38;;;19.80;92.20;;;;;;5114478;28;20478;-81
2023/06/06 07:37:59;;;;;;;5.03;2.08;;;19.80;92.20;;;;;;5132374;28;20026;-84
2023/06/06 07:40:25;;;;;;;6.13;2.38;;;19.80;92.20;;;;;;5108623;28;20048;-84
2023/06/06 07:42:51;;;;;;;4.18;2.40;;;19.90;92.40;;;;;;5115367;28;20032;-83
2023/06/06 07:45:16;;;;;;;2.83;2.25;;;19.90;91.90;;;;;;5113346;28;20028;-88
2023/06/06 07:47:43;;;;;;;4.28;2.30;;;20.00;91.90;;;;;;5115616;28;20019;-86
2023/06/06 07:50:09;;;;;;;4.68;2.30;;;20.00;91.50;;;;;;5123739;28;20106;-92
2023/06/06 07:52:35;;;;;;;3.13;2.45;;;20.10;90.90;;;;;;5109357;28;20064;-91
2023/06/06 07:55:02;;;;;;;3.05;2.30;;;20.10;90.90;;;;;;5116763;28;20465;-92
2023/06/06 07:57:27;;;;;;;3.60;2.17;;;20.10;90.90;;;;;;5115646;28;20028;-92
2023/06/06 07:59:54;;;;;;;3.65;2.30;;;20.20;90.40;;;;;;5126426;28;20420;-93
2023/06/06 08:02:19;;;;;;;4.15;2.30;;;20.30;90.10;;;;;;5122712;28;20026;-93
2023/06/06 08:04:45;;;;;;;3.30;2.03;;;20.30;89.60;;;;;;5118987;28;20039;-92
2023/06/06 08:07:12;;;;;;;5.72;2.42;;;20.40;89.60;;;;;;5129217;28;20020;-91
2023/06/06 08:09:38;;;;;;;3.05;2.30;;;20.40;89.20;;;;;;5116870;28;20042;-92
2023/06/06 08:12:05;;;;;;;4.53;2.25;;;20.50;88.60;;;;;;5125002;28;20024;-93
2023/06/06 08:14:33;;;;;;;3.30;2.20;;;20.50;88.40;;;;;;5112898;28;20123;-92
2023/06/06 08:16:59;;;;;;;3.35;2.28;;;20.60;87.00;;;;;;5112035;28;20426;-92
2023/06/06 08:19:24;;;;;;;3.33;2.00;;;20.60;87.00;;;;;;5117201;27;20027;-93
2023/06/06 08:21:50;;;;;;;3.67;1.90;;;20.70;87.30;;;;;;5129000;27;20434;-90
2023/06/06 08:24:16;;;;;;;2.95;2.08;;;20.70;87.00;;;;;;5128251;27;20031;-90
2023/06/06 08:26:41;;;;;;;3.40;2.28;;;20.70;87.50;;;;;;5116272;28;20063;-90
2023/06/06 08:29:07;;;;;;;5.70;2.47;;;20.80;86.60;;;;;;5132533;27;20399;-90
2023/06/06 08:31:32;;;;;;;2.53;2.00;;;20.90;86.40;;;;;;5119501;27;20026;-90
2023/06/06 08:33:58;;;;;;;3.90;2.22;;;20.90;85.70;;;;;;5130108;27;20046;-89
2023/06/06 08:36:24;;;;;;;4.13;2.50;;;21.00;86.00;;;;;;5126650;27;20480;-89
2023/06/06 08:38:49;;;;;;;3.95;2.30;;;21.10;85.20;;;;;;5121412;27;20083;-90
2023/06/06 08:41:16;;;;;;;4.78;2.53;;;21.10;85.70;;;;;;5132692;27;20057;-90
2023/06/06 08:43:42;;;;;;;2.90;2.30;;;21.10;85.10;;;;;;5105703;27;20034;-89
2023/06/06 08:46:08;;;;;;;2.40;1.65;;;21.20;84.60;;;;;;5112170;28;20046;-90
2023/06/06 08:48:36;;;;;;;3.22;2.00;;;21.20;84.00;;;;;;5124923;27;20033;-90
2023/06/06 08:51:03;;;;;;;3.90;2.30;;;21.30;83.40;;;;;;5110455;27;20020;-90
2023/06/06 08:53:30;;;;;;;6.63;2.10;;;21.40;83.20;;;;;;5131966;27;20031;-90
2023/06/06 08:55:57;;;;;;;4.97;2.35;;;21.40;83.20;;;;;;5119903;27;20024;-88
2023/06/06 08:58:23;;;;;;;4.10;2.17;;;21.50;83.20;;;;;;5133351;27;20091;-90
2023/06/06 09:00:49;;;;;;;4.28;2.60;;;21.50;82.90;;;;;;5133424;27;20062;-88
2023/06/06 09:03:17;;;;;;;4.35;2.10;;;21.50;82.70;;;;;;5129259;27;20031;-89
2023/06/06 09:05:43;;;;;;;4.80;2.42;;;21.50;83.40;;;;;;5121904;28;20051;-89
2023/06/06 09:08:09;;;;;;;6.55;2.35;;;21.50;81.90;;;;;;5138018;27;20487;-90
2023/06/06 09:10:35;;;;;;;3.63;2.00;;;21.50;82.00;;;;;;5128088;27;20023;-90
2023/06/06 09:13:00;;;;;;;4.05;1.90;;;21.60;82.20;;;;;;5125866;27;20028;-90
2023/06/06 09:15:27;;;;;;;2.90;2.33;;;21.70;79.80;;;;;;5130163;27;20593;-89
2023/06/06 09:17:54;;;;;;;2.80;1.90;;;21.70;79.10;;;;;;5118081;27;20052;-90
2023/06/06 09:20:21;;;;;;;4.10;2.03;;;21.80;77.50;;;;;;5130316;27;20446;-89
2023/06/06 09:22:48;;;;;;;4.10;2.10;;;21.80;77.80;;;;;;5123184;27;20066;-90
2023/06/06 09:25:22;;;;;;;2.92;1.88;;;21.90;77.10;;;;;;5122556;27;20032;-91
2023/06/06 09:27:55;;;;;;;2.85;2.10;;;21.90;77.10;;;;;;5131647;27;20047;-88
2023/06/06 09:30:25;;;;;;;2.55;1.90;;;21.90;77.20;;;;;;5120063;27;20050;-90
2023/06/06 09:32:58;;;;;;;2.85;1.90;;;22.00;78.00;;;;;;5126399;27;20032;-89
2023/06/06 09:35:32;;;;;;;3.67;1.85;;;22.10;76.30;;;;;;5129352;27;20031;-91
2023/06/06 09:38:05;;;;;;;3.28;1.95;;;22.20;74.90;;;;;;5118050;27;20020;-89
2023/06/06 09:40:31;;;;;;;3.55;1.60;;;22.20;74.10;;;;;;5128414;27;20052;-85
2023/06/06 09:42:58;;;;;;;2.08;1.63;;;22.30;73.70;;;;;;5120756;27;20400;-84
2023/06/06 09:45:24;;;;;;;3.00;1.77;;;22.30;72.90;;;;;;5122630;27;20035;-84
2023/06/06 09:47:50;;;;;;;5.53;1.73;;;22.30;72.60;;;;;;5117886;27;20069;-84
2023/06/06 09:50:18;;;;;;;3.53;1.92;;;22.40;73.10;;;;;;5130516;27;20034;-85
2023/06/06 09:52:44;;;;;;;5.00;2.17;;;22.40;73.10;;;;;;5111803;27;20076;-85
2023/06/06 09:55:12;;;;;;;5.80;1.90;;;22.40;73.20;;;;;;5121520;27;20110;-85
2023/06/06 09:57:40;;;;;;;4.88;2.10;;;22.40;73.40;;;;;;5115988;27;20474;-84
2023/06/06 10:00:14;;;;;;;3.67;2.05;;;22.50;72.30;;;;;;5128168;27;20072;-85
2023/06/06 10:02:43;;;;;;;3.13;2.03;;;22.50;72.10;;;;;;5094634;28;20032;-81
2023/06/06 10:05:14;;;;;;;2.50;1.92;;;22.50;70.50;;;;;;5110214;27;20032;-80
2023/06/06 10:07:45;;;;;;;3.17;1.92;;;22.50;71.20;;;;;;5126843;27;20483;-81
2023/06/06 10:10:17;;;;;;;3.03;1.95;;;22.60;70.80;;;;;;5101775;27;20029;-80
2023/06/06 10:12:43;;;;;;;4.35;2.08;;;22.60;71.40;;;;;;5134670;27;20464;-83
2023/06/06 10:15:11;;;;;;;3.63;2.10;;;22.70;72.50;;;;;;5134111;27;20023;-82
2023/06/06 10:17:41;;;;;;;3.35;1.95;;;22.70;72.50;;;;;;5118660;27;20119;-83
2023/06/06 10:20:12;;;;;;;4.75;2.10;;;22.80;72.30;;;;;;5130461;27;20106;-81
2023/06/06 10:22:39;;;;;;;10.65;2.05;;;22.80;72.60;;;;;;5113765;28;20027;-82
2023/06/06 10:25:06;;;;;;;4.03;2.05;;;22.90;72.30;;;;;;5113261;28;20127;-83
2023/06/06 10:27:53;;;;;;;2.97;2.13;;;23.00;71.70;;;;;;5130647;27;20030;-83
2023/06/06 10:30:37;;;;;;;3.05;2.22;;;23.00;71.90;;;;;;5103561;27;20038;-82
2023/06/06 10:33:18;;;;;;;5.60;2.17;;;23.10;71.30;;;;;;5122082;27;20493;-83
2023/06/06 10:35:49;;;;;;;4.95;2.17;;;23.20;71.10;;;;;;5120713;27;20122;-84
2023/06/06 10:38:14;;;;;;;4.72;2.30;;;23.20;70.90;;;;;;5117648;27;20034;-82
2023/06/06 10:40:50;;;;;;;3.88;2.20;;;23.20;69.20;;;;;;5132940;27;20138;-83
2023/06/06 10:43:20;;;;;;;4.15;2.13;;;23.10;69.00;;;;;;5121690;27;20031;-82
2023/06/06 10:45:49;;;;;;;3.70;2.13;;;23.20;70.00;;;;;;5130096;27;20034;-87
2023/06/06 10:48:15;;;;;;;3.60;2.30;;;23.20;70.60;;;;;;5118328;27;20023;-82
2023/06/06 10:50:59;;;;;;;3.80;2.50;;;23.30;71.00;;;;;;5118875;27;20023;-83
2023/06/06 10:53:25;;;;;;;3.55;2.10;;;23.40;70.50;;;;;;5128262;27;20039;-82
2023/06/06 10:55:50;;;;;;;5.00;2.30;;;23.50;70.30;;;;;;5116569;27;20055;-82
2023/06/06 10:58:16;;;;;;;5.00;2.28;;;23.40;70.30;;;;;;5129894;27;20020;-82
2023/06/06 11:00:43;;;;;;;3.88;2.60;;;23.40;70.00;;;;;;5121510;27;20029;-81
2023/06/06 11:03:15;;;;;;;2.80;2.20;;;23.50;69.80;;;;;;5133263;27;20031;-82
2023/06/06 11:06:16;;;;;;;;;;;23.60;69.30;;;;;;5117364;28;20027;-83
2023/06/06 11:08:56;;;;;;;2.88;2.10;;;23.70;69.00;;;;;;5051488;28;20324;-81
2023/06/06 11:11:23;;;;;;;3.00;2.10;;;23.70;68.40;;;;;;5114131;28;20072;-84
2023/06/06 11:14:09;;;;;;;3.00;2.08;;;23.70;68.30;;;;;;5116516;28;20030;-84
2023/06/06 11:16:40;;;;;;;2.92;2.03;;;23.70;67.80;;;;;;5126183;28;20020;-85
2023/06/06 11:19:21;;;;;;;3.08;1.85;;;23.80;68.30;;;;;;5123984;28;20028;-85
2023/06/06 11:21:57;;;;;;;4.25;2.00;;;23.90;66.70;;;;;;5115987;28;20024;-84
2023/06/06 11:24:23;;;;;;;2.85;2.25;;;24.00;65.50;;;;;;5127968;28;20058;-84
2023/06/06 11:26:51;;;;;;;3.65;1.92;;;24.10;66.30;;;;;;5122020;28;20455;-85
2023/06/06 11:29:19;;;;;;;6.68;2.47;;;24.20;66.80;;;;;;5120054;28;20072;-85
2023/06/06 11:31:45;;;;;;;4.72;2.60;;;24.40;66.90;;;;;;5129751;28;20023;-87
2023/06/06 11:34:13;;;;;;;4.43;2.45;;;24.50;66.60;;;;;;5116730;28;20027;-84
2023/06/06 11:36:41;;;;;;;4.07;2.08;;;24.60;66.50;;;;;;5126678;28;20031;-85
2023/06/06 11:39:11;;;;;;;3.30;2.58;;;24.50;65.80;;;;;;5119482;28;20080;-84
2023/06/06 11:41:49;;;;;;;4.00;2.22;;;24.50;65.80;;;;;;5128831;28;20103;-85
2023/06/06 11:44:17;;;;;;;2.60;1.98;;;24.60;65.20;;;;;;5101679;28;20023;-83
2023/06/06 11:46:47;;;;;;;3.05;2.50;;;24.70;64.50;;;;;;5125781;28;20035;-83
2023/06/06 11:49:13;;;;;;;5.50;2.35;;;24.80;64.60;;;;;;5117937;28;20023;-82
2023/06/06 11:51:39;;;;;;;4.88;2.22;;;24.90;66.30;;;;;;5111039;28;20046;-82
2023/06/06 11:54:17;;;;;;;6.13;2.40;;;25.00;64.60;;;;;;5119110;27;20189;-83
2023/06/06 11:56:43;;;;;;;3.75;2.20;;;25.00;61.40;;;;;;5107792;27;20035;-81
2023/06/06 11:59:14;;;;;;;3.55;2.60;;;25.00;61.90;;;;;;5112408;27;20100;-81
2023/06/06 12:01:50;;;;;;;4.55;2.35;;;25.10;63.00;;;;;;5106996;27;20024;-81
2023/06/06 12:04:18;;;;;;;3.75;2.60;;;25.20;63.00;;;;;;5112412;27;20090;-81
2023/06/06 12:06:55;;;;;;;2.78;2.00;;;25.40;61.20;;;;;;5112952;27;20031;-80
2023/06/06 12:09:23;;;;;;;3.75;2.25;;;25.60;61.50;;;;;;5108833;28;20020;-81
2023/06/06 12:12:00;;;;;;;3.60;2.40;;;25.70;61.50;;;;;;5115626;28;20081;-84
2023/06/06 12:14:26;;;;;;;3.47;2.20;;;25.80;61.40;;;;;;5113995;28;20042;-82
2023/06/06 12:16:53;;;;;;;3.00;2.20;;;25.80;60.30;;;;;;5123318;27;20024;-82
2023/06/06 12:19:19;;;;;;;2.78;2.20;;;25.80;60.50;;;;;;5133901;27;20023;-81
2023/06/06 12:21:51;;;;;;;3.53;2.13;;;25.70;61.50;;;;;;5119330;27;20042;-81
2023/06/06 12:24:21;;;;;;;4.85;2.25;;;25.70;62.20;;;;;;5115962;28;20035;-81
2023/06/06 12:26:53;;;;;;;6.07;2.72;;;25.70;61.90;;;;;;5116304;28;20028;-84
2023/06/06 12:29:30;;;;;;;4.63;2.13;;;25.60;61.40;;;;;;5116722;28;20070;-82
2023/06/06 12:32:21;;;;;;;3.00;2.10;;;25.50;61.00;;;;;;5117064;27;20118;-82
2023/06/06 12:34:49;;;;;;;5.55;2.72;;;25.40;61.50;;;;;;5136430;27;20027;-85
2023/06/06 12:37:18;;;;;;;3.95;2.33;;;25.40;61.80;;;;;;5125726;27;20019;-82
2023/06/06 12:39:45;;;;;;;4.68;1.98;;;25.50;61.60;;;;;;5109077;28;20027;-82
2023/06/06 12:42:16;;;;;;;2.90;2.03;;;25.60;62.20;;;;;;5114855;28;20051;-82
2023/06/06 12:44:46;;;;;;;7.03;2.60;;;25.60;60.50;;;;;;5115890;28;20024;-83
2023/06/06 12:47:13;;;;;;;3.97;2.42;;;25.40;60.70;;;;;;5116666;28;20031;-83
2023/06/06 12:49:39;;;;;;;3.60;2.47;;;25.30;60.90;;;;;;5133186;27;20066;-83
2023/06/06 12:52:05;;;;;;;2.90;2.20;;;25.30;60.90;;;;;;5130079;27;20479;-83